createdAt,value
2022-08-29T00:07:47.739Z,61.68
2022-08-29T00:17:50.012Z,53.45
2022-08-29T00:27:51.933Z,55.97
2022-08-29T00:37:55.091Z,66.86
2022-08-29T00:48:07.474Z,64.43
2022-08-29T00:58:14.490Z,61.52
2022-08-29T01:08:16.615Z,60.25
2022-08-29T01:18:18.713Z,54.39
2022-08-29T01:28:23.045Z,63.40
2022-08-29T01:38:30.564Z,62.13
2022-08-29T01:48:32.352Z,60.76
2022-08-29T01:58:34.211Z,54.16
2022-08-29T02:08:36.917Z,64.25
2022-08-29T02:18:38.755Z,62.21
2022-08-29T02:28:41.845Z,60.78
2022-08-29T02:38:43.627Z,60.65
2022-08-29T02:48:52.249Z,54.16
2022-08-29T02:59:02.959Z,63.66
2022-08-29T03:09:04.733Z,61.84
2022-08-29T03:19:06.812Z,60.16
2022-08-29T03:29:08.646Z,54.50
2022-08-29T03:39:10.493Z,64.97
2022-08-29T03:49:12.250Z,62.97
2022-08-29T03:59:14.947Z,61.33
2022-08-29T04:09:16.705Z,60.39
2022-08-29T04:19:19.396Z,55.16
2022-08-29T04:29:21.222Z,64.21
2022-08-29T04:39:23.148Z,62.76
2022-08-29T04:49:24.960Z,60.82
2022-08-29T04:59:27.181Z,60.04
2022-08-29T05:09:30.419Z,54.87
2022-08-29T05:19:34.608Z,65.97
2022-08-29T05:29:38.933Z,64.09
2022-08-29T05:39:41.262Z,61.51
2022-08-29T05:49:43.704Z,54.87
2022-08-29T05:59:46.240Z,64.25
2022-08-29T06:09:48.185Z,60.89
2022-08-29T06:19:51.416Z,53.56
2022-08-29T06:29:53.391Z,56.75
2022-08-29T06:39:55.274Z,67.54
2022-08-29T06:49:57.276Z,61.60
2022-08-29T06:59:59.415Z,53.59
2022-08-29T07:10:03.554Z,56.29
2022-08-29T07:20:06.939Z,65.89
2022-08-29T07:30:09.335Z,55.67
2022-08-29T07:40:13.558Z,53.22
2022-08-29T07:50:15.516Z,46.98
2022-08-29T08:00:17.972Z,47.70
2022-08-29T08:10:20.917Z,50.53
2022-08-29T08:20:25.357Z,52.83
2022-08-29T08:30:27.414Z,55.11
2022-08-29T08:40:31.700Z,57.69
2022-08-29T08:50:36.495Z,59.36
2022-08-29T09:00:43.603Z,68.42
2022-08-29T09:11:05.716Z,55.07
2022-08-29T09:21:37.085Z,54.44
2022-08-29T09:31:35.713Z,54.84
2022-08-29T09:41:37.825Z,52.62
2022-08-29T09:51:45.921Z,45.07
2022-08-29T10:01:49.163Z,41.46
2022-08-29T10:12:15.018Z,34.51
2022-08-29T10:34:17.092Z,30.97
2022-08-29T10:44:28.478Z,29.52
2022-08-29T10:54:35.759Z,32.92
2022-08-29T11:04:41.543Z,36.43
2022-08-29T11:14:49.494Z,39.29
2022-08-29T11:25:08.706Z,40.33
2022-08-29T11:35:22.310Z,41.75
2022-08-29T11:45:28.325Z,42.50
2022-08-29T11:55:40.183Z,44.28
2022-08-29T12:05:51.056Z,45.18
2022-08-29T12:15:54.010Z,44.73
2022-08-29T12:26:16.313Z,45.67
2022-08-29T12:36:52.156Z,45.86
2022-08-29T12:47:00.667Z,46.20
2022-08-29T12:57:03.086Z,46.21
2022-08-29T13:07:42.458Z,46.05
2022-08-29T13:17:46.428Z,46.10
2022-08-29T13:28:00.941Z,45.85
2022-08-29T13:38:17.041Z,45.11
2022-08-29T13:48:20.532Z,44.70
2022-08-29T13:58:22.854Z,44.33
2022-08-29T14:08:25.274Z,44.09
2022-08-29T14:18:27.100Z,44.08
2022-08-29T14:28:34.811Z,44.60
2022-08-29T14:38:40.045Z,44.00
2022-08-29T14:48:41.910Z,44.62
2022-08-29T14:58:44.297Z,44.90
2022-08-29T15:08:46.752Z,45.63
2022-08-29T15:29:10.232Z,46.82
2022-08-29T15:39:13.442Z,46.54
2022-08-29T15:49:15.832Z,47.12
2022-08-29T15:59:18.065Z,47.60
2022-08-29T16:09:20.810Z,48.56
2022-08-29T16:19:22.820Z,49.20
2022-08-29T16:29:26.233Z,50.23
2022-08-29T16:39:29.557Z,51.39
2022-08-29T16:49:31.851Z,52.93
2022-08-29T16:59:37.102Z,53.81
2022-08-29T17:09:39.411Z,54.91
2022-08-29T17:19:44.444Z,55.88
2022-08-29T17:29:47.707Z,57.00
2022-08-29T17:39:49.686Z,71.93
2022-08-29T17:49:51.638Z,65.29
2022-08-29T17:59:54.064Z,52.01
2022-08-29T18:09:59.572Z,51.90
2022-08-29T18:20:01.844Z,54.67
2022-08-29T18:30:04.625Z,68.12
2022-08-29T18:40:08.572Z,64.75
2022-08-29T18:50:29.734Z,52.72
2022-08-29T19:00:33.189Z,52.92
2022-08-29T19:10:36.219Z,55.76
2022-08-29T19:20:56.903Z,69.84
2022-08-29T19:31:02.685Z,67.52
2022-08-29T19:41:05.949Z,53.33
2022-08-29T19:51:09.301Z,53.65
2022-08-29T20:01:15.791Z,66.13
2022-08-29T20:22:14.860Z,52.38
2022-08-29T20:32:20.785Z,53.89
2022-08-29T20:42:25.341Z,67.53
2022-08-29T20:52:27.509Z,64.10
2022-08-29T21:02:47.960Z,52.89
2022-08-29T21:12:49.954Z,53.83
2022-08-29T21:22:51.802Z,68.20
2022-08-29T21:32:57.228Z,64.81
2022-08-29T21:42:59.643Z,53.05
2022-08-29T21:53:01.645Z,54.25
2022-08-29T22:03:05.770Z,67.71
2022-08-29T22:13:09.124Z,64.10
2022-08-29T22:23:11.264Z,53.37
2022-08-29T22:33:16.364Z,54.64
2022-08-29T22:43:19.264Z,68.50
2022-08-29T22:53:21.035Z,65.10
2022-08-29T23:03:25.925Z,61.56
2022-08-29T23:13:28.111Z,51.90
2022-08-29T23:23:33.047Z,53.62
2022-08-29T23:33:34.854Z,67.45
2022-08-29T23:43:37.170Z,64.03
2022-08-29T23:53:39.028Z,53.24
